DH4NBB-12 Weather Reports


time (UTC)temp
F
wind
direction
speed
knots
gust
knots
rain 1hr
in
rain 24hr
in
rain mn
in
humidity
%
barometer
mb
20240418160934 52 0 0.0 0.0 0.00 0.00 0.00 67 982.0
20240418155432 49 0 0.0 0.0 0.00 0.00 0.00 70 979.0
20240418153928 49 0 0.0 0.0 0.00 0.00 0.00 71 979.0
20240418152425 53 0 0.0 0.0 0.00 0.00 0.00 63 980.0
20240418150922 54 0 0.0 0.0 0.00 0.00 0.00 63 979.0
20240418145419 61 0 0.0 0.0 0.00 0.00 0.00 55 982.0
20240418143916 58 0 0.0 0.0 0.00 0.00 0.00 58 981.0
20240418142310 57 0 0.0 0.0 0.00 0.00 0.00 59 982.0
20240418140806 57 0 0.0 0.0 0.00 0.00 0.00 65 983.0
20240418140000 53 0 0.0 0.0 0.00 0.00 0.00 71 983.0
20240418134419 49 0 0.0 0.0 0.00 0.00 0.00 72 981.0
20240418132958 50 0 0.0 0.0 0.00 0.00 0.00 70 981.0
20240418131457 49 0 0.0 0.0 0.00 0.00 0.00 74 982.0
20240418123743 49 0 0.0 0.0 0.00 0.00 0.00 70 982.0
20240418122953 47 0 0.0 0.0 0.00 0.00 0.00 74 982.0
20240418121452 45 0 0.0 0.0 0.00 0.00 0.00 80 981.0
20240418115644 44 0 0.0 0.0 0.00 0.00 0.00 83 980.0
20240418114450 44 0 0.0 0.0 0.00 0.00 0.00 82 980.0
20240418112949 45 0 0.0 0.0 0.00 0.00 0.00 77 980.0
20240418110653 45 0 0.0 0.0 0.00 0.00 0.00 74 980.0
20240418105318 48 0 0.0 0.0 0.00 0.00 0.00 72 981.0
20240418103651 49 0 0.0 0.0 0.00 0.00 0.00 70 981.0
20240418102331 47 0 0.0 0.0 0.00 0.00 0.00 76 981.0
20240418101359 47 0 0.0 0.0 0.00 0.00 0.00 76 981.0
20240418095751 47 0 0.0 0.0 0.00 0.00 0.00 75 981.0
20240418094339 46 0 0.0 0.0 0.00 0.00 0.00 74 981.0
20240418092940 45 0 0.0 0.0 0.00 0.00 0.00 76 981.0
20240418091439 45 0 0.0 0.0 0.00 0.00 0.00 75 981.0
20240418085938 45 0 0.0 0.0 0.00 0.00 0.00 78 981.0
20240418083603 43 0 0.0 0.0 0.00 0.00 0.00 79 980.0
20240418082936 43 0 0.0 0.0 0.00 0.00 0.00 81 981.0
20240418075933 41 0 0.0 0.0 0.00 0.00 0.00 83 979.0
20240418074432 41 0 0.0 0.0 0.00 0.00 0.00 83 979.0
20240418072931 41 0 0.0 0.0 0.00 0.00 0.00 85 979.0
20240418071430 40 0 0.0 0.0 0.00 0.00 0.00 86 979.0
20240418065929 40 0 0.0 0.0 0.00 0.00 0.00 84 978.0
20240418064428 40 0 0.0 0.0 0.00 0.00 0.00 86 978.0
20240418062927 40 0 0.0 0.0 0.00 0.00 0.00 85 978.0
20240418061426 41 0 0.0 0.0 0.00 0.00 0.00 85 978.0
20240418055925 40 0 0.0 0.0 0.00 0.00 0.00 86 978.0
20240418054424 40 0 0.0 0.0 0.00 0.00 0.00 86 978.0
20240418052923 39 0 0.0 0.0 0.00 0.00 0.00 87 977.0
20240418051422 38 0 0.0 0.0 0.00 0.00 0.00 89 977.0
20240418045920 37 0 0.0 0.0 0.00 0.00 0.00 88 977.0
20240418044419 36 0 0.0 0.0 0.00 0.00 0.00 89 976.0
20240418042918 36 0 0.0 0.0 0.00 0.00 0.00 87 975.0
20240418041417 37 0 0.0 0.0 0.00 0.00 0.00 86 975.0
20240418035916 37 0 0.0 0.0 0.00 0.00 0.00 88 975.0
20240418034415 37 0 0.0 0.0 0.00 0.00 0.00 89 975.0
20240418032913 38 0 0.0 0.0 0.00 0.00 0.00 88 975.0
20240418031412 38 0 0.0 0.0 0.00 0.00 0.00 88 975.0
20240418025911 38 0 0.0 0.0 0.00 0.00 0.00 89 975.0
20240418024410 39 0 0.0 0.0 0.00 0.00 0.00 87 975.0
20240418022909 39 0 0.0 0.0 0.00 0.00 0.00 87 975.0
20240418021408 39 0 0.0 0.0 0.00 0.00 0.00 86 975.0
20240418015907 39 0 0.0 0.0 0.00 0.00 0.00 86 975.0
20240418014406 39 0 0.0 0.0 0.00 0.00 0.00 88 974.0
20240418012905 39 0 0.0 0.0 0.00 0.00 0.00 88 974.0
20240418011404 39 0 0.0 0.0 0.00 0.00 0.00 87 974.0
20240418005903 40 0 0.0 0.0 0.00 0.00 0.00 86 974.0
20240418004402 40 0 0.0 0.0 0.00 0.00 0.00 85 974.0
20240418002900 40 0 0.0 0.0 0.00 0.00 0.00 85 974.0
20240418001359 40 0 0.0 0.0 0.00 0.00 0.00 85 974.0
20240417235858 40 0 0.0 0.0 0.00 0.00 0.00 85 974.0
20240417234357 40 0 0.0 0.0 0.00 0.00 0.00 85 974.0
20240417232856 40 0 0.0 0.0 0.00 0.00 0.00 84 974.0
20240417231355 41 0 0.0 0.0 0.00 0.00 0.00 83 974.0
20240417225854 41 0 0.0 0.0 0.00 0.00 0.00 83 974.0
20240417224352 41 0 0.0 0.0 0.00 0.00 0.00 82 974.0
20240417222851 40 0 0.0 0.0 0.00 0.00 0.00 83 973.0
20240417221350 40 0 0.0 0.0 0.00 0.00 0.00 84 973.0
20240417215849 42 0 0.0 0.0 0.00 0.00 0.00 82 973.0
20240417214348 42 0 0.0 0.0 0.00 0.00 0.00 81 973.0
20240417212847 42 0 0.0 0.0 0.00 0.00 0.00 80 973.0
20240417211346 42 0 0.0 0.0 0.00 0.00 0.00 80 973.0
20240417205845 42 0 0.0 0.0 0.00 0.00 0.00 78 973.0
20240417204344 42 0 0.0 0.0 0.00 0.00 0.00 78 973.0
20240417202843 42 0 0.0 0.0 0.00 0.00 0.00 77 972.0
20240417201342 42 0 0.0 0.0 0.00 0.00 0.00 77 972.0
20240417195840 43 0 0.0 0.0 0.00 0.00 0.00 72 972.0
20240417194339 44 0 0.0 0.0 0.00 0.00 0.00 69 972.0
20240417192838 44 0 0.0 0.0 0.00 0.00 0.00 69 972.0
20240417191337 43 0 0.0 0.0 0.00 0.00 0.00 74 971.0
20240417185836 44 0 0.0 0.0 0.00 0.00 0.00 74 971.0
20240417184335 46 0 0.0 0.0 0.00 0.00 0.00 69 971.0
20240417182834 48 0 0.0 0.0 0.00 0.00 0.00 61 970.0
20240417181229 50 0 0.0 0.0 0.00 0.00 0.00 58 971.0
20240417175832 53 0 0.0 0.0 0.00 0.00 0.00 52 970.0
20240417174223 58 0 0.0 0.0 0.00 0.00 0.00 50 973.0
20240417172721 60 0 0.0 0.0 0.00 0.00 0.00 48 973.0
20240417171217 60 0 0.0 0.0 0.00 0.00 0.00 49 974.0
20240417164211 50 0 0.0 0.0 0.00 0.00 0.00 58 972.0
20240417162708 50 0 0.0 0.0 0.00 0.00 0.00 56 972.0